KAUW

Wausau Downtown Airport

Wausau, Wisconsin, USA
KAUW 251140Z 2512/2612 23004KT P6SM OVC008 TEMPO 2512/2513 3SM BR BKN004 FM251300 28004KT 5SM -SHRA BR OVC008 FM252100 31008G15KT 5SM SHRA BR OVC007 FM260000 32008KT P6SM VCSH BKN015
Issued Valid From Valid To
Sep-25 @ 11:40 UTC
(3 hours ago)
Sep-25 @ 12:00 UTC
(3 hours ago)
Sep-26 @ 12:00 UTC
(in 21 hours)
Expired Click to View Sep-25 @ 12:00 to Sep-25 @ 13:00
KAUW 251140Z 2512/2612 23004KT P6SM OVC008
Wind Visibility Clouds
230° at 4 knots Greater than 6 miles
  • Overcast at 800' AGL
Expired Click to View Sep-25 @ 12:00 to Sep-25 @ 13:00
TEMPO 2512/2513 3SM BR BKN004
Visibility Clouds Conditions
3 miles
  • Broken at 400' AGL
  • Mist
From Sep-25 @ 13:00 to Sep-25 @ 21:00
FM251300 28004KT 5SM -SHRA BR OVC008
Wind Visibility Clouds Conditions
280° at 4 knots 5 miles
  • Overcast at 800' AGL
  • Light Rain
  • Mist
From Sep-25 @ 21:00 to Sep-26 @ 00:00
FM252100 31008G15KT 5SM SHRA BR OVC007
Wind Visibility Clouds Conditions
310° at 8 knots
 Gusting to 15 knots
5 miles
  • Overcast at 700' AGL
  • Rain
  • Mist
From Sep-26 @ 00:00 to Sep-26 @ 12:00
FM260000 32008KT P6SM VCSH BKN015
Wind Visibility Clouds
320° at 8 knots Greater than 6 miles
  • Broken at 1,500' AGL
KAUW 251140Z 2512/2612 23004KT P6SM OVC008 TEMPO 2512/2513 3SM BR BKN004 FM251300 28004KT 5SM -SHRA BR OVC008 FM252100 31008G15KT 5SM SHRA BR OVC007 FM260000 32008KT P6SM VCSH BKN015
Issued Sep-25 @ 11:40 UTC
(3 hours ago)
Valid From Sep-25 @ 12:00 UTC
(3 hours ago)
Valid To Sep-26 @ 12:00 UTC
(in 21 hours)
Sep-25 @ 12:00 - Sep-25 @ 13:00
Wind Visibility
230° at 4 knots Greater than 6 miles
Clouds
  • Overcast at 800' AGL
Sep-25 @ 12:00 - Sep-25 @ 13:00
Clouds
  • Broken at 400' AGL
Conditions
  • Mist
From Sep-25 @ 13:00 - Sep-25 @ 21:00
Wind Visibility
280° at 4 knots 5 miles
Clouds
  • Overcast at 800' AGL
Conditions
  • Light Rain
  • Mist
From Sep-25 @ 21:00 - Sep-26 @ 00:00
Wind Visibility
310° at 8 knots
 Gusting to 15 knots
5 miles
Clouds
  • Overcast at 700' AGL
Conditions
  • Rain
  • Mist
From Sep-26 @ 00:00 - Sep-26 @ 12:00
Wind Visibility
320° at 8 knots Greater than 6 miles
Clouds
  • Broken at 1,500' AGL